Flight Track Log - Related Links

Times and Time Zones

All times are in EDT time to prevent confusion due to time zone crossing. See the LYM717 flight status page for this flight to view local times or setup timezone preferences in your user account.

Time Position Orientation Groundspeed Altitude Reporting Facility
EDT Latitude Longitude Course Direction KTS MPH feet Rate Location/Type
Wed 08:34:35 AM 39.8333 -104.6500 90° East 116 133 6,400  Level Denver TRACON
Wed 08:35:24 AM 39.8333 -104.6000 90° East 135 155 7,100 724 Climbing Denver TRACON
Wed 08:36:31 AM 39.8167 -104.5500 113° Southeast 134 154 7,800 566 Climbing Denver TRACON
Wed 08:37:10 AM 39.8128 -104.5178 99° East 135 155 8,100 667 Climbing Denver Center
Wed 08:38:10 AM 39.8031 -104.4678 104° East 140 161 8,900 446 Climbing Denver Center
Wed 08:39:11 AM 39.7992 -104.4114 95° East 154 177 9,000 98 Climbing Denver Center
Wed 08:40:12 AM 39.7931 -104.3461 97° East 179 206 9,100 49 Climbing Denver Center
Wed 08:41:13 AM 39.7897 -104.2717 93° East 190 219 9,100  Level Denver Center
Wed 08:42:14 AM 39.7850 -104.2011 95° East 194 223 9,100  Level Denver Center
Wed 08:43:15 AM 39.7808 -104.1275 94° East 201 231 9,100  Level Denver Center
Wed 08:44:16 AM 39.7775 -104.0575 94° East 199 229 9,100 -49 Level Denver Center
Wed 08:45:17 AM 39.7722 -103.9872 96° East 198 228 9,000 -49 Descending Denver Center
Wed 08:46:18 AM 39.7683 -103.9150 94° East 201 231 9,000 49 Level Denver Center
Wed 08:47:19 AM 39.7611 -103.8392 97° East 201 231 9,100 45 Climbing Denver Center
Wed 08:48:32 AM 39.7503 -103.7508 99° East 199 229 9,100 -45 Level Denver Center
Wed 08:49:33 AM 39.7444 -103.6789 96° East 197 227 9,000 -49 Descending Denver Center
Wed 08:50:34 AM 39.7367 -103.6053 98° East 200 230 9,000 49 Level Denver Center
Wed 08:51:35 AM 39.7253 -103.5353 102° East 200 230 9,100 49 Climbing Denver Center
Wed 08:52:36 AM 39.7175 -103.4628 98° East 200 230 9,100  Level Denver Center
Wed 08:53:37 AM 39.7028 -103.3900 105° East 206 237 9,100 -49 Level Denver Center
Wed 08:54:38 AM 39.6894 -103.3178 103° East 206 237 9,000  Descending Denver Center
Wed 08:55:39 AM 39.6742 -103.2464 106° East 206 237 9,100 49 Climbing Denver Center
Wed 08:56:40 AM 39.6608 -103.1781 104° East 203 234 9,100 -49 Level Denver Center
Wed 08:57:41 AM 39.6436 -103.1119 109° East 199 229 9,000 -49 Descending Denver Center
Wed 08:58:42 AM 39.6286 -103.0447 106° East 196 226 9,000 49 Level Denver Center
Wed 08:59:43 AM 39.6189 -102.9719 100° East 198 228 9,100 49 Climbing Denver Center
Wed 09:00:44 AM 39.6144 -102.8969 94° East 203 234 9,100  Level Denver Center
Wed 09:01:45 AM 39.6050 -102.8097 98° East 204 235 9,100 -49 Level Denver Center
Wed 09:02:46 AM 39.5942 -102.7350 101° East 204 235 9,000 -49 Descending Denver Center
Wed 09:03:47 AM 39.5817 -102.6625 103° East 205 236 9,000  Level Denver Center
Wed 09:04:48 AM 39.5633 -102.5942 109° East 204 235 9,000  Level Denver Center
Wed 09:05:49 AM 39.5369 -102.5347 120° Southeast 204 235 9,000  Level Denver Center
Wed 09:09:41 AM 39.4897 -102.2736 102° East 193 222 9,000  Level Denver Center
Wed 09:10:42 AM 39.4789 -102.2083 102° East 193 222 9,000  Level Denver Center
Wed 09:11:43 AM 39.4675 -102.1464 103° East 192 221 9,000  Level Denver Center
Wed 09:12:44 AM 39.4542 -102.0708 103° East 192 221 9,000  Level Denver Center
Wed 09:13:45 AM 39.4442 -102.0053 101° East 192 221 9,000 49 Level Denver Center
Wed 09:14:00 AM 39.4265 -101.9468 102° East  Level FlightAware Approximate
Wed 09:14:46 AM 39.4347 -101.9397 101° East 192 221 9,100  Level Denver Center
Wed 09:15:47 AM 39.4206 -101.8619 103° East 192 221 9,000 -49 Descending Denver Center
Wed 09:16:48 AM 39.4064 -101.7983 106° East 193 222 9,000  Level Denver Center
Wed 09:17:49 AM 39.3911 -101.7222 105° East 193 222 9,000  Level Denver Center
Wed 09:18:50 AM 39.3819 -101.6572 100° East 193 222 9,000  Level Denver Center
Wed 09:19:51 AM 39.3931 -101.5911 78° East 197 227 9,000 -295 Level Denver Center
Wed 09:20:52 AM 39.4031 -101.5044 81° East 211 243 8,400 -590 Descending Denver Center
Wed 09:21:53 AM 39.4094 -101.4256 84° East 223 257 7,800 -590 Descending Denver Center

Login

Don't have an account? Register now (free) for customized features, flight alerts, and more!